Time;durP1;ratioP1;P1;durP2;ratioP2;P2;SDS_P1;SDS_P2;PMS_P1;PMS_P2;Temp;Humidity;BMP_temperature;BMP_pressure;BME280_temperature;BME280_humidity;BME280_pressure;Samples;Min_cycle;Max_cycle;Signal;HPM_P1;HPM_P2
2023/05/30 00:02:11;;;;;;;;;;;18.20;78.20;;;;;;5025333;28;19932;-70
2023/05/30 00:04:39;;;;;;;;;;;18.20;78.30;;;;;;5029247;28;19933;-71
2023/05/30 00:07:08;;;;;;;;;;;18.20;78.30;;;;;;5028746;28;19925;-71
2023/05/30 00:09:35;;;;;;;;;;;18.10;78.40;;;;;;5029145;28;19965;-71
2023/05/30 00:12:02;;;;;;;;;;;18.10;78.30;;;;;;5007797;28;19933;-71
2023/05/30 00:14:28;;;;;;;;;;;18.10;78.40;;;;;;5007508;28;20027;-71
2023/05/30 00:16:56;;;;;;;;;;;18.10;78.80;;;;;;5026926;28;19925;-71
2023/05/30 00:19:23;;;;;;;;;;;18.00;78.50;;;;;;5022550;28;19953;-71
2023/05/30 00:21:49;;;;;;;;;;;18.00;78.60;;;;;;5025693;28;20610;-71
2023/05/30 00:24:18;;;;;;;;;;;18.00;78.70;;;;;;5026079;28;20366;-71
2023/05/30 00:26:45;;;;;;;;;;;18.00;78.80;;;;;;5022832;28;19957;-71
2023/05/30 00:29:11;;;;;;;;;;;18.00;79.00;;;;;;5026540;28;19936;-71
2023/05/30 00:31:40;;;;;;;;;;;18.00;79.00;;;;;;5029058;28;20000;-71
2023/05/30 00:34:06;;;;;;;;;;;17.90;78.80;;;;;;5028534;28;19944;-70
2023/05/30 00:36:34;;;;;;;;;;;17.90;78.90;;;;;;5026963;28;19925;-71
2023/05/30 00:39:01;;;;;;;;;;;17.90;79.10;;;;;;5024173;28;19944;-71
2023/05/30 00:41:29;;;;;;;;;;;17.90;79.30;;;;;;5029428;28;19925;-71
2023/05/30 00:43:56;;;;;;;;;;;17.80;79.10;;;;;;5025264;28;20023;-71
2023/05/30 00:46:29;;;;;;;;;;;17.80;79.10;;;;;;5011456;28;20000;-71
2023/05/30 00:48:57;;;;;;;;;;;17.80;79.40;;;;;;5008201;28;20368;-72
2023/05/30 00:51:25;;;;;;;;;;;17.80;79.40;;;;;;5004596;28;19937;-70
2023/05/30 00:53:52;;;;;;;;;;;17.70;79.30;;;;;;5028511;28;19976;-71
2023/05/30 00:56:28;;;;;;;;;;;17.70;79.20;;;;;;5017591;28;19933;-71
2023/05/30 00:58:56;;;;;;;;;;;17.70;79.30;;;;;;5010271;28;20020;-72
2023/05/30 01:01:24;;;;;;;;;;;17.70;79.50;;;;;;5002616;28;19929;-70
2023/05/30 01:03:51;;;;;;;;;;;17.70;79.40;;;;;;5010148;28;19925;-71
2023/05/30 01:06:20;;;;;;;;;;;17.60;79.30;;;;;;5007142;28;20027;-71
2023/05/30 01:08:47;;;;;;;;;;;17.60;79.60;;;;;;5010775;28;19952;-70
2023/05/30 01:11:30;;;;;;;;;;;17.60;79.60;;;;;;5010892;28;19925;-71
2023/05/30 01:14:03;;;;;;;;;;;17.60;79.50;;;;;;5009777;28;19940;-71
2023/05/30 01:16:33;;;;;;;;;;;17.50;79.50;;;;;;5026461;28;20003;-71
2023/05/30 01:19:02;;;;;;;;;;;17.50;79.50;;;;;;5013014;28;19926;-71
2023/05/30 01:21:31;;;;;;;;;;;17.50;79.70;;;;;;5025494;28;19925;-71
2023/05/30 01:24:07;;;;;;;;;;;17.50;79.80;;;;;;5014431;28;19929;-71
2023/05/30 01:26:43;;;;;;;;;;;17.40;79.70;;;;;;5009556;28;19929;-71
2023/05/30 01:29:14;;;;;;;;;;;17.40;79.90;;;;;;5032127;28;19976;-70
2023/05/30 01:31:42;;;;;;;;;;;17.40;80.00;;;;;;5028099;28;19932;-70
2023/05/30 01:34:09;;;;;;;;;;;17.40;80.00;;;;;;5013235;28;19930;-71
2023/05/30 01:36:37;;;;;;;;;;;17.30;80.00;;;;;;5032351;28;19932;-71
2023/05/30 01:39:07;;;;;;;;;;;17.30;80.10;;;;;;5024431;28;20304;-70
2023/05/30 01:41:37;;;;;;;;;;;17.30;80.00;;;;;;5028918;28;19932;-71
2023/05/30 01:44:06;;;;;;;;;;;17.30;80.10;;;;;;5014323;28;19925;-70
2023/05/30 01:46:39;;;;;;;;;;;17.30;80.20;;;;;;5030638;28;19929;-71
2023/05/30 01:49:11;;;;;;;;;;;17.30;80.30;;;;;;5006354;28;20538;-71
2023/05/30 01:51:41;;;;;;;;;;;17.20;80.20;;;;;;5013192;28;20299;-71
2023/05/30 01:54:11;;;;;;;;;;;17.20;80.30;;;;;;5013946;28;19937;-70
2023/05/30 01:56:39;;;;;;;;;;;17.20;80.30;;;;;;5027462;28;19948;-71
2023/05/30 01:59:06;;;;;;;;;;;17.20;80.50;;;;;;5030168;28;20003;-70
2023/05/30 02:01:34;;;;;;;;;;;17.20;80.30;;;;;;5008079;28;20023;-71
2023/05/30 02:04:02;;;;;;;;;;;17.20;80.40;;;;;;5011258;28;19987;-71
2023/05/30 02:06:29;;;;;;;;;;;17.10;80.50;;;;;;5014658;28;19932;-70
2023/05/30 02:08:56;;;;;;;;;;;17.10;80.50;;;;;;5014083;28;19968;-70
2023/05/30 02:11:22;;;;;;;;;;;17.10;80.60;;;;;;5031253;28;19968;-70
2023/05/30 02:13:53;;;;;;;;;;;17.00;80.60;;;;;;5031094;28;19940;-71
2023/05/30 02:16:20;;;;;;;;;;;17.00;80.60;;;;;;5020995;28;19931;-70
2023/05/30 02:18:47;;;;;;;;;;;17.00;80.90;;;;;;5030069;28;19937;-71
2023/05/30 02:21:15;;;;;;;;;;;17.00;80.80;;;;;;5029897;28;20346;-70
2023/05/30 02:23:43;;;;;;;;;;;17.00;80.90;;;;;;5026227;28;19929;-71
2023/05/30 02:26:10;;;;;;;;;;;16.90;80.90;;;;;;5011110;28;20011;-71
2023/05/30 02:28:38;;;;;;;;;;;16.90;81.00;;;;;;5026262;28;20354;-71
2023/05/30 02:31:05;;;;;;;;;;;16.90;81.00;;;;;;5009508;28;20060;-70
2023/05/30 02:33:32;;;;;;;;;;;16.90;81.30;;;;;;5030013;28;19933;-71
2023/05/30 02:35:59;;;;;;;;;;;16.90;81.20;;;;;;5030438;28;19984;-71
2023/05/30 02:38:27;;;;;;;;;;;16.90;81.10;;;;;;5029829;28;19975;-71
2023/05/30 02:40:54;;;;;;;;;;;16.80;81.20;;;;;;5008917;28;19961;-70
2023/05/30 02:43:21;;;;;;;;;;;16.80;81.30;;;;;;5004829;28;19925;-71
2023/05/30 02:45:50;;;;;;;;;;;16.80;80.80;;;;;;5029507;28;19925;-71
2023/05/30 02:48:19;;;;;;;;;;;16.80;81.50;;;;;;5029175;28;19929;-71
2023/05/30 02:50:45;;;;;;;;;;;16.80;81.60;;;;;;5009228;28;20348;-71
2023/05/30 02:53:18;;;;;;;;;;;16.70;81.60;;;;;;5011518;28;20473;-71
2023/05/30 02:55:48;;;;;;;;;;;16.70;81.60;;;;;;5028399;28;20346;-71
2023/05/30 02:58:34;;;;;;;;;;;16.70;81.80;;;;;;5023976;28;20004;-70
2023/05/30 03:01:07;;;;;;;;;;;16.70;81.90;;;;;;5023484;28;19925;-71
2023/05/30 03:03:37;;;;;;;;;;;16.70;81.90;;;;;;5012353;28;19925;-71
2023/05/30 03:06:16;;;;;;;;;;;16.70;81.50;;;;;;5012273;28;19925;-70
2023/05/30 03:08:57;;;;;;;;;;;16.60;81.90;;;;;;5019577;28;19937;-71
2023/05/30 03:11:25;;;;;;;;;;;16.60;82.00;;;;;;5006291;28;20450;-71
2023/05/30 03:13:52;;;;;;;;;;;16.60;82.20;;;;;;5017653;28;20315;-71
2023/05/30 03:16:20;;;;;;;;;;;16.60;82.10;;;;;;5026818;28;19925;-69
2023/05/30 03:18:49;;;;;;;;;;;16.50;82.20;;;;;;5017032;28;20031;-70
2023/05/30 03:21:16;;;;;;;;;;;16.50;82.10;;;;;;5014990;28;19933;-70
2023/05/30 03:23:43;;;;;;;;;;;16.50;82.40;;;;;;5025676;28;20012;-70
2023/05/30 03:26:10;;;;;;;;;;;16.50;82.40;;;;;;5011802;28;19937;-71
2023/05/30 03:28:38;;;;;;;;;;;16.50;82.50;;;;;;5011603;28;19932;-70
2023/05/30 03:31:37;;;;;;;;;;;16.40;81.90;;;;;;4981572;28;20574;-71
2023/05/30 03:34:04;;;;;;;;;;;16.40;82.60;;;;;;5009514;28;19925;-70
2023/05/30 03:36:31;;;;;;;;;;;16.40;82.60;;;;;;5030218;28;19925;-70
2023/05/30 03:39:01;;;;;;;;;;;16.40;82.70;;;;;;5027922;28;19957;-70
2023/05/30 03:41:28;;;;;;;;;;;16.40;82.80;;;;;;5019287;28;19936;-71
2023/05/30 03:43:58;;;;;;;;;;;16.40;83.10;;;;;;5011167;28;19929;-70
2023/05/30 03:46:25;;;;;;;;;;;16.30;82.90;;;;;;5030119;28;19929;-70
2023/05/30 03:48:51;;;;;;;;;;;16.30;82.80;;;;;;5017341;28;20484;-70
2023/05/30 03:51:19;;;;;;;;;;;16.30;83.60;;;;;;5012116;28;20359;-70
2023/05/30 03:53:46;;;;;;;;;;;16.30;83.10;;;;;;5010896;28;20303;-71
2023/05/30 03:56:12;;;;;;;;;;;16.30;83.30;;;;;;5011869;28;19925;-70
2023/05/30 03:58:39;;;;;;;;;;;16.30;83.10;;;;;;5016513;28;19929;-71
2023/05/30 04:01:08;;;;;;;;;;;16.20;83.20;;;;;;5011410;28;19925;-71
2023/05/30 04:03:37;;;;;;;;;;;16.20;83.30;;;;;;5028296;28;20413;-71
2023/05/30 04:06:05;;;;;;;;;;;16.20;83.20;;;;;;5009169;28;19929;-70
2023/05/30 04:08:32;;;;;;;;;;;16.20;83.40;;;;;;5026796;28;20044;-70
2023/05/30 04:10:59;;;;;;;;;;;16.20;83.70;;;;;;5012221;28;19980;-71
2023/05/30 04:13:25;;;;;;;;;;;16.20;83.60;;;;;;5012329;28;19969;-71
2023/05/30 04:15:53;;;;;;;;;;;16.20;83.90;;;;;;5020647;28;19968;-70
2023/05/30 04:18:24;;;;;;;;;;;16.10;83.80;;;;;;5007700;28;19925;-70
2023/05/30 04:20:51;;;;;;;;;;;16.10;83.70;;;;;;5027179;28;20001;-70
2023/05/30 04:23:18;;;;;;;;;;;16.10;83.80;;;;;;5028685;28;19929;-70
2023/05/30 04:25:47;;;;;;;;;;;16.10;83.90;;;;;;5010687;28;19933;-71
2023/05/30 04:28:16;;;;;;;;;;;16.10;83.70;;;;;;5006770;28;19932;-71
2023/05/30 04:30:48;;;;;;;;;;;16.10;84.10;;;;;;5006631;28;19972;-71
2023/05/30 04:33:16;;;;;;;;;;;16.10;84.20;;;;;;5014165;28;20422;-70
2023/05/30 04:35:45;;;;;;;;;;;16.00;84.70;;;;;;5023344;28;19929;-73
2023/05/30 04:38:16;;;;;;;;;;;16.00;84.10;;;;;;4998044;28;19951;-73
2023/05/30 04:40:43;;;;;;;;;;;16.00;84.50;;;;;;5010366;28;19925;-70
2023/05/30 04:43:10;;;;;;;;;;;16.00;84.40;;;;;;5011835;28;19933;-70
2023/05/30 04:45:38;;;;;;;;;;;16.00;84.20;;;;;;5005876;28;19925;-70
2023/05/30 04:48:05;;;;;;;;;;;16.00;84.30;;;;;;5032998;28;19929;-70
2023/05/30 04:50:32;;;;;;;;;;;16.00;84.70;;;;;;5014701;28;19932;-71
2023/05/30 04:53:02;;;;;;;;;;;16.00;84.70;;;;;;5022554;28;19925;-71
2023/05/30 04:55:30;;;;;;;;;;;16.00;84.50;;;;;;5030768;28;19956;-71
2023/05/30 04:57:57;;;;;;;;;;;16.00;84.50;;;;;;5008186;28;19942;-71
2023/05/30 05:00:24;;;;;;;;;;;16.00;84.70;;;;;;5030382;28;19933;-70
2023/05/30 05:02:51;;;;;;;;;;;16.00;84.60;;;;;;5022601;28;19929;-71
2023/05/30 05:05:18;;;;;;;;;;;16.00;84.80;;;;;;5027480;28;20032;-70
2023/05/30 05:07:45;;;;;;;;;;;15.90;84.60;;;;;;5013834;28;20445;-70
2023/05/30 05:10:13;;;;;;;;;;;16.00;84.50;;;;;;5012745;28;19925;-71
2023/05/30 05:12:40;;;;;;;;;;;15.90;84.60;;;;;;5029853;28;19932;-70
2023/05/30 05:15:07;;;;;;;;;;;15.90;85.00;;;;;;5031920;28;19967;-71
2023/05/30 05:17:36;;;;;;;;;;;15.90;84.90;;;;;;5028042;28;19929;-71
2023/05/30 05:20:05;;;;;;;;;;;15.90;84.60;;;;;;5032294;28;20395;-71
2023/05/30 05:22:32;;;;;;;;;;;15.90;85.90;;;;;;5030091;28;19936;-71
2023/05/30 05:25:00;;;;;;;;;;;15.90;85.20;;;;;;5032465;28;19931;-71
2023/05/30 05:27:30;;;;;;;;;;;15.90;85.00;;;;;;5028284;28;19925;-71
2023/05/30 05:29:57;;;;;;;;;;;15.90;85.50;;;;;;5031658;28;19925;-70
2023/05/30 05:32:23;;;;;;;;;;;15.90;85.50;;;;;;5031460;28;19979;-70
2023/05/30 05:34:52;;;;;;;;;;;15.90;85.60;;;;;;5028158;28;20016;-71
2023/05/30 05:37:18;;;;;;;;;;;15.80;85.90;;;;;;5028741;28;19933;-71
2023/05/30 05:39:45;;;;;;;;;;;15.80;85.60;;;;;;5031698;28;19998;-70
2023/05/30 05:42:12;;;;;;;;;;;15.80;85.60;;;;;;5029951;28;19926;-70
2023/05/30 05:44:40;;;;;;;;;;;15.80;85.50;;;;;;5031989;28;20000;-70
2023/05/30 05:47:07;;;;;;;;;;;15.80;86.20;;;;;;5010650;28;20039;-70
2023/05/30 05:49:34;;;;;;;;;;;15.80;86.20;;;;;;5031115;28;20028;-70
2023/05/30 05:52:03;;;;;;;;;;;15.80;85.70;;;;;;5031132;28;20016;-71
2023/05/30 05:54:30;;;;;;;;;;;15.80;85.80;;;;;;5010325;28;19933;-70
2023/05/30 05:56:57;;;;;;;;;;;15.80;85.80;;;;;;5012793;28;19984;-70
2023/05/30 05:59:25;;;;;;;;;;;15.80;85.70;;;;;;5025385;28;20399;-71
2023/05/30 06:01:54;;;;;;;;;;;15.90;85.80;;;;;;5031413;28;19929;-70
2023/05/30 06:04:20;;;;;;;;;;;15.90;85.60;;;;;;5027387;28;19925;-70
2023/05/30 06:06:47;;;;;;;;;;;15.90;85.90;;;;;;5013758;28;19972;-71
2023/05/30 06:09:15;;;;;;;;;;;15.90;86.30;;;;;;5031119;28;19933;-70
2023/05/30 06:11:42;;;;;;;;;;;15.90;86.20;;;;;;5029007;28;19926;-71
2023/05/30 06:14:09;;;;;;;;;;;15.90;86.60;;;;;;5031393;28;20007;-71
2023/05/30 06:16:36;;;;;;;;;;;15.90;86.40;;;;;;5032097;28;20410;-71
2023/05/30 06:19:04;;;;;;;;;;;15.80;86.90;;;;;;5027953;28;20347;-71
2023/05/30 06:21:31;;;;;;;;;;;15.90;86.90;;;;;;5028066;28;19925;-71
2023/05/30 06:23:59;;;;;;;;;;;15.90;87.00;;;;;;5031243;28;19971;-71
2023/05/30 06:26:29;;;;;;;;;;;15.90;87.10;;;;;;5029016;28;19929;-72
2023/05/30 06:28:56;;;;;;;;;;;15.90;87.10;;;;;;5022340;28;19925;-71
2023/05/30 06:31:23;;;;;;;;;;;15.90;87.60;;;;;;5013321;28;19948;-71
2023/05/30 06:33:50;;;;;;;;;;;15.90;87.60;;;;;;5011524;28;19931;-71
2023/05/30 06:36:21;;;;;;;;;;;15.90;87.70;;;;;;5028695;28;19979;-71
2023/05/30 06:38:48;;;;;;;;;;;15.90;88.60;;;;;;5030622;28;20022;-71
2023/05/30 06:41:17;;;;;;;;;;;15.90;88.40;;;;;;5029834;28;19933;-71
2023/05/30 06:43:44;;;;;;;;;;;15.90;88.60;;;;;;5017484;28;19951;-71
2023/05/30 06:46:11;;;;;;;;;;;15.90;88.90;;;;;;5027056;28;20002;-71
2023/05/30 06:48:37;;;;;;;;;;;15.90;89.00;;;;;;5030930;28;19925;-71
2023/05/30 06:51:06;;;;;;;;;;;16.00;88.90;;;;;;5029245;28;19933;-70
2023/05/30 06:53:35;;;;;;;;;;;16.00;89.00;;;;;;5026551;28;19925;-72
2023/05/30 06:56:01;;;;;;;;;;;16.00;89.20;;;;;;5012738;28;19929;-71
2023/05/30 06:58:29;;;;;;;;;;;16.00;89.10;;;;;;5005928;28;19925;-71
2023/05/30 07:00:57;;;;;;;;;;;16.00;89.40;;;;;;5028687;28;19925;-70
2023/05/30 07:03:25;;;;;;;;;;;16.00;89.40;;;;;;5026316;28;20642;-72
2023/05/30 07:05:52;;;;;;;;;;;16.00;89.50;;;;;;5030674;28;19972;-72
2023/05/30 07:08:19;;;;;;;;;;;16.00;89.50;;;;;;5028612;28;19932;-71
2023/05/30 07:10:50;;;;;;;;;;;16.10;89.60;;;;;;5024760;28;19983;-71
2023/05/30 07:13:17;;;;;;;;;;;16.10;89.60;;;;;;5027639;28;19925;-71
2023/05/30 07:15:43;;;;;;;;;;;16.10;89.80;;;;;;5029717;28;19932;-71
2023/05/30 07:18:10;;;;;;;;;;;16.10;89.60;;;;;;5007181;28;19932;-71
2023/05/30 07:20:37;;;;;;;;;;;16.10;89.70;;;;;;5011985;28;19953;-71
2023/05/30 07:23:04;;;;;;;;;;;16.20;89.90;;;;;;5008769;28;19937;-71
2023/05/30 07:25:31;;;;;;;;;;;16.20;90.00;;;;;;5024535;28;19961;-71
2023/05/30 07:28:00;;;;;;;;;;;16.20;90.00;;;;;;5008312;28;20032;-72
2023/05/30 07:30:27;;;;;;;;;;;16.20;89.90;;;;;;5029360;28;20379;-71
2023/05/30 07:32:54;;;;;;;;;;;16.20;90.10;;;;;;5029955;28;20442;-71
2023/05/30 07:35:21;;;;;;;;;;;16.20;90.10;;;;;;5027025;28;20583;-71
2023/05/30 07:37:51;;;;;;;;;;;16.20;90.10;;;;;;5029136;28;20395;-71
2023/05/30 07:40:20;;;;;;;;;;;16.20;90.20;;;;;;5012658;28;19936;-72
2023/05/30 07:42:50;;;;;;;;;;;16.20;90.10;;;;;;5029663;28;19931;-71
2023/05/30 07:45:24;;;;;;;;;;;16.30;90.30;;;;;;5026423;28;20400;-71
2023/05/30 07:47:53;;;;;;;;;;;16.30;90.30;;;;;;5011528;28;20216;-72
2023/05/30 07:50:21;;;;;;;;;;;16.30;90.30;;;;;;5009011;28;19925;-71
2023/05/30 07:52:48;;;;;;;;;;;16.30;90.30;;;;;;5027716;28;19925;-71
2023/05/30 07:55:16;;;;;;;;;;;16.30;90.30;;;;;;5029560;28;19929;-71
2023/05/30 07:57:43;;;;;;;;;;;16.30;90.40;;;;;;5028599;28;19972;-71
2023/05/30 08:00:10;;;;;;;;;;;16.30;90.30;;;;;;5025336;28;19936;-71
2023/05/30 08:02:41;;;;;;;;;;;16.30;90.30;;;;;;5029885;28;20007;-71
2023/05/30 08:05:08;;;;;;;;;;;16.40;90.30;;;;;;5029247;28;20431;-70
2023/05/30 08:07:35;;;;;;;;;;;16.30;90.40;;;;;;5028005;28;19932;-71
2023/05/30 08:10:03;;;;;;;;;;;16.30;90.40;;;;;;5028711;28;19925;-71
2023/05/30 08:12:30;;;;;;;;;;;16.40;90.50;;;;;;5029308;28;19932;-71
2023/05/30 08:14:57;;;;;;;;;;;16.40;90.40;;;;;;5011684;28;19936;-71
2023/05/30 08:17:27;;;;;;;;;;;16.40;90.40;;;;;;5029145;28;19948;-71
2023/05/30 08:19:57;;;;;;;;;;;16.40;90.50;;;;;;5024622;28;20407;-71
2023/05/30 08:22:27;;;;;;;;;;;16.40;90.50;;;;;;5011841;28;19929;-71
2023/05/30 08:24:59;;;;;;;;;;;16.40;90.50;;;;;;5025685;28;20356;-71
2023/05/30 08:27:26;;;;;;;;;;;16.50;90.60;;;;;;5022996;28;19929;-71
2023/05/30 08:29:53;;;;;;;;;;;16.50;90.60;;;;;;5025324;28;20457;-71
2023/05/30 08:32:20;;;;;;;;;;;16.50;90.60;;;;;;5026766;28;19932;-72
2023/05/30 08:34:47;;;;;;;;;;;16.50;90.50;;;;;;5025823;28;19925;-71
2023/05/30 08:37:16;;;;;;;;;;;16.50;90.40;;;;;;5010978;28;19990;-71
2023/05/30 08:39:43;;;;;;;;;;;16.50;90.50;;;;;;5021569;28;19995;-71
2023/05/30 08:42:12;;;;;;;;;;;16.50;90.70;;;;;;5024314;28;20315;-71
2023/05/30 08:44:40;;;;;;;;;;;16.60;90.60;;;;;;5029081;28;20344;-72
2023/05/30 08:47:12;;;;;;;;;;;16.60;90.70;;;;;;5024614;28;19929;-71
2023/05/30 08:49:40;;;;;;;;;;;16.60;90.60;;;;;;5024415;28;20028;-72
2023/05/30 08:52:10;;;;;;;;;;;16.60;90.70;;;;;;5025501;28;19925;-71
2023/05/30 08:54:41;;;;;;;;;;;16.60;90.70;;;;;;5002296;28;19932;-71
2023/05/30 08:57:12;;;;;;;;;;;16.60;90.70;;;;;;5026066;28;19931;-72
2023/05/30 08:59:45;;;;;;;;;;;16.60;90.60;;;;;;5022440;28;20535;-71
2023/05/30 09:02:15;;;;;;;;;;;16.60;90.60;;;;;;5026397;28;19963;-71
2023/05/30 09:04:43;;;;;;;;;;;16.70;90.70;;;;;;5021631;28;19932;-71
2023/05/30 09:07:17;;;;;;;;;;;16.70;90.70;;;;;;5023498;28;20384;-71
2023/05/30 09:09:48;;;;;;;;;;;16.70;90.80;;;;;;5005514;28;20399;-72
2023/05/30 09:12:15;;;;;;;;;;;16.70;90.80;;;;;;5028783;28;19929;-71
2023/05/30 09:14:41;;;;;;;;;;;16.70;90.70;;;;;;5026027;28;20307;-72
2023/05/30 09:17:08;;;;;;;;;;;16.70;90.70;;;;;;5025834;28;19925;-71
2023/05/30 09:19:38;;;;;;;;;;;16.70;90.70;;;;;;5026126;28;20541;-71
2023/05/30 09:22:07;;;;;;;;;;;16.70;90.70;;;;;;5027266;28;20396;-72
2023/05/30 09:24:53;;;;;;;;;;;16.80;90.70;;;;;;5007639;28;19925;-71
2023/05/30 09:27:22;;;;;;;;;;;16.80;90.70;;;;;;5024557;28;19977;-71
2023/05/30 09:29:49;;;;;;;;;;;16.80;90.70;;;;;;5029410;28;19971;-71
2023/05/30 09:32:17;;;;;;;;;;;16.90;90.80;;;;;;5022296;28;19935;-71
2023/05/30 09:34:53;;;;;;;;;;;16.90;90.80;;;;;;5029974;28;20427;-71
2023/05/30 09:37:20;;;;;;;;;;;16.90;90.70;;;;;;5030638;28;19925;-70
2023/05/30 09:40:04;;;;;;;;;;;16.90;90.70;;;;;;5017562;28;19926;-71
2023/05/30 09:42:40;;;;;;;;;;;16.90;90.80;;;;;;5030466;28;20293;-72
2023/05/30 09:45:10;;;;;;;;;;;16.90;90.80;;;;;;5031210;28;20339;-71
2023/05/30 09:47:41;;;;;;;;;;;17.00;90.70;;;;;;5012514;28;19935;-71
2023/05/30 09:50:12;;;;;;;;;;;17.00;90.60;;;;;;5030911;28;19925;-72
2023/05/30 09:52:40;;;;;;;;;;;17.00;90.70;;;;;;5025439;28;19932;-71
2023/05/30 09:55:08;;;;;;;;;;;17.00;90.70;;;;;;5000202;28;20432;-72
2023/05/30 09:57:36;;;;;;;;;;;17.00;90.50;;;;;;5029617;28;20003;-71
2023/05/30 10:00:11;;;;;;;;;;;17.00;90.60;;;;;;5013010;28;19925;-72
2023/05/30 10:02:39;;;;;;;;;;;17.00;90.70;;;;;;5030470;28;20311;-72
2023/05/30 10:05:06;;;;;;;;;;;17.00;90.70;;;;;;5027843;28;19925;-72
2023/05/30 10:07:33;;;;;;;;;;;17.10;90.50;;;;;;5029885;28;19929;-72
2023/05/30 10:10:01;;;;;;;;;;;17.10;90.50;;;;;;5030222;28;20347;-72
2023/05/30 10:12:29;;;;;;;;;;;17.10;90.50;;;;;;5029603;28;20028;-72
2023/05/30 10:14:56;;;;;;;;;;;17.20;90.50;;;;;;5030608;28;20534;-72
2023/05/30 10:17:26;;;;;;;;;;;17.20;90.70;;;;;;5031598;28;19957;-72
2023/05/30 10:19:57;;;;;;;;;;;17.20;90.50;;;;;;5031312;28;19988;-72
2023/05/30 10:22:24;;;;;;;;;;;17.30;90.30;;;;;;5027247;28;20348;-72
2023/05/30 10:24:51;;;;;;;;;;;17.20;90.20;;;;;;5029728;28;19980;-72
2023/05/30 10:27:24;;;;;;;;;;;17.20;90.40;;;;;;5027256;28;19936;-72
2023/05/30 10:29:58;;;;;;;;;;;17.30;90.40;;;;;;5028082;28;19972;-72
2023/05/30 10:32:35;;;;;;;;;;;17.30;90.30;;;;;;5030325;28;20434;-72
2023/05/30 10:35:06;;;;;;;;;;;17.30;90.20;;;;;;5030340;28;20363;-72
2023/05/30 10:37:33;;;;;;;;;;;17.30;90.10;;;;;;5022530;28;19980;-72
2023/05/30 10:40:06;;;;;;;;;;;17.30;90.10;;;;;;5030463;28;20418;-72
2023/05/30 10:42:38;;;;;;;;;;;17.30;90.20;;;;;;5028963;28;19926;-72
2023/05/30 10:45:09;;;;;;;;;;;17.40;90.30;;;;;;5026985;28;19925;-72
2023/05/30 10:47:42;;;;;;;;;;;17.40;90.20;;;;;;5029482;28;19929;-72
2023/05/30 10:50:12;;;;;;;;;;;17.40;90.30;;;;;;5029882;28;19931;-72
2023/05/30 10:52:38;;;;;;;;;;;17.40;90.20;;;;;;5029113;28;20020;-72
2023/05/30 10:55:10;;;;;;;;;;;17.50;90.20;;;;;;5009143;28;20011;-72
2023/05/30 10:57:37;;;;;;;;;;;17.40;90.20;;;;;;5029819;28;19932;-72
2023/05/30 11:00:17;;;;;;;;;;;17.50;90.20;;;;;;5028324;28;19932;-72
2023/05/30 11:02:52;;;;;;;;;;;17.50;90.10;;;;;;5030125;28;19925;-72
2023/05/30 11:05:20;;;;;;;;;;;17.60;90.20;;;;;;5027917;28;19925;-72
2023/05/30 11:07:50;;;;;;;;;;;17.60;90.20;;;;;;5027730;28;19925;-72
2023/05/30 11:10:27;;;;;;;;;;;17.60;90.00;;;;;;5022987;28;19983;-72
2023/05/30 11:13:07;;;;;;;;;;;17.60;90.10;;;;;;5025700;28;19925;-73
2023/05/30 11:15:34;;;;;;;;;;;17.70;90.10;;;;;;5027892;28;19964;-72
2023/05/30 11:18:14;;;;;;;;;;;17.70;90.20;;;;;;5011936;28;19925;-72
2023/05/30 11:20:48;;;;;;;;;;;17.70;90.10;;;;;;5007761;28;19933;-72
2023/05/30 11:23:19;;;;;;;;;;;17.70;90.10;;;;;;5024931;28;19979;-72
2023/05/30 11:25:46;;;;;;;;;;;17.80;89.50;;;;;;5023010;28;19955;-72
2023/05/30 11:28:17;;;;;;;;;;;17.80;89.30;;;;;;5026507;28;19925;-72
2023/05/30 11:30:46;;;;;;;;;;;17.80;89.40;;;;;;5025638;28;19925;-72
2023/05/30 11:33:14;;;;;;;;;;;17.80;89.40;;;;;;5029894;28;19925;-72
2023/05/30 11:35:43;;;;;;;;;;;17.90;89.40;;;;;;5028978;28;19934;-72
2023/05/30 11:38:11;;;;;;;;;;;17.90;89.40;;;;;;5028769;28;19979;-72
2023/05/30 11:40:43;;;;;;;;;;;17.90;88.80;;;;;;5019161;28;19933;-72
2023/05/30 11:43:12;;;;;;;;;;;17.90;88.20;;;;;;5028830;28;19925;-72
2023/05/30 11:45:39;;;;;;;;;;;18.00;88.20;;;;;;5029374;28;19933;-72
2023/05/30 11:48:06;;;;;;;;;;;18.00;88.30;;;;;;5025881;28;19932;-72
2023/05/30 11:50:39;;;;;;;;;;;18.10;88.20;;;;;;5026291;28;19929;-73
2023/05/30 11:53:10;;;;;;;;;;;18.30;88.40;;;;;;5026917;28;19929;-72
2023/05/30 11:55:37;;;;;;;;;;;18.30;88.90;;;;;;5008301;28;19968;-72
2023/05/30 11:58:04;;;;;;;;;;;18.30;89.40;;;;;;5028581;28;20028;-73
2023/05/30 12:00:34;;;;;;;;;;;18.30;89.20;;;;;;5026307;28;19929;-71
2023/05/30 12:03:02;;;;;;;;;;;18.30;87.80;;;;;;5024170;28;19932;-72
2023/05/30 12:05:30;;;;;;;;;;;18.30;88.10;;;;;;5029474;28;19925;-72
2023/05/30 12:08:05;;;;;;;;;;;18.40;87.90;;;;;;5023566;28;19932;-72
2023/05/30 12:10:32;;;;;;;;;;;18.30;87.50;;;;;;5009269;28;20399;-72
2023/05/30 12:13:00;;;;;;;;;;;18.40;88.60;;;;;;5028562;28;19925;-72
2023/05/30 12:15:27;;;;;;;;;;;18.50;88.60;;;;;;5028171;28;19964;-72
2023/05/30 12:17:54;;;;;;;;;;;18.60;88.30;;;;;;5025361;28;19965;-71
2023/05/30 12:20:21;;;;;;;;;;;18.70;87.00;;;;;;5023716;28;20513;-72
2023/05/30 12:22:49;;;;;;;;;;;18.70;87.30;;;;;;5028412;28;19995;-72
2023/05/30 12:25:19;;;;;;;;;;;18.70;88.00;;;;;;5026479;28;19992;-72
2023/05/30 12:27:48;;;;;;;;;;;18.70;88.10;;;;;;5027987;28;19925;-72
2023/05/30 12:30:16;;;;;;;;;;;18.80;87.80;;;;;;5023646;28;19932;-72
2023/05/30 12:32:44;;;;;;;;;;;18.70;87.60;;;;;;5028915;28;19931;-72
2023/05/30 12:35:13;;;;;;;;;;;18.80;87.80;;;;;;5028318;28;20326;-72
2023/05/30 12:37:42;;;;;;;;;;;18.90;86.70;;;;;;5025607;28;19932;-72
2023/05/30 12:40:09;;;;;;;;;;;19.00;85.20;;;;;;5028095;28;19925;-73
2023/05/30 12:42:38;;;;;;;;;;;19.10;87.20;;;;;;5025576;28;19929;-72
2023/05/30 12:45:05;;;;;;;;;;;19.30;86.10;;;;;;5025741;28;19925;-73
2023/05/30 12:47:32;;;;;;;;;;;19.20;86.50;;;;;;5010324;28;19932;-72
2023/05/30 12:50:00;;;;;;;;;;;19.20;87.40;;;;;;5029230;28;19933;-73
2023/05/30 12:52:27;;;;;;;;;;;19.20;86.50;;;;;;5024217;28;19933;-72
2023/05/30 12:54:54;;;;;;;;;;;19.20;87.30;;;;;;5024729;28;19929;-72
2023/05/30 12:57:24;;;;;;;;;;;19.30;87.60;;;;;;5010083;28;19939;-72
2023/05/30 12:59:53;;;;;;;;;;;19.30;86.90;;;;;;5025032;28;19925;-72
2023/05/30 13:02:24;;;;;;;;;;;19.40;87.60;;;;;;5026563;28;19967;-72
2023/05/30 13:04:54;;;;;;;;;;;19.50;87.70;;;;;;5027618;28;19925;-72
2023/05/30 13:07:21;;;;;;;;;;;19.60;86.40;;;;;;5027240;28;19925;-73
2023/05/30 13:09:48;;;;;;;;;;;19.60;87.10;;;;;;5027164;28;19925;-72
2023/05/30 13:12:15;;;;;;;;;;;19.60;86.90;;;;;;5027534;28;19932;-72
2023/05/30 13:14:43;;;;;;;;;;;19.60;86.80;;;;;;5014226;28;19987;-72
2023/05/30 13:17:11;;;;;;;;;;;19.60;86.80;;;;;;5031609;28;20449;-73
2023/05/30 13:19:38;;;;;;;;;;;19.60;87.00;;;;;;5027841;28;19933;-72
2023/05/30 13:22:07;;;;;;;;;;;19.80;85.80;;;;;;5032337;28;20399;-72
2023/05/30 13:24:34;;;;;;;;;;;19.80;86.50;;;;;;5013615;28;19957;-72
2023/05/30 13:27:02;;;;;;;;;;;19.80;86.00;;;;;;5026499;28;19964;-73
2023/05/30 13:29:29;;;;;;;;;;;19.90;85.30;;;;;;5010942;28;19933;-73
2023/05/30 13:31:57;;;;;;;;;;;19.90;86.20;;;;;;5031346;28;19932;-72
2023/05/30 13:34:25;;;;;;;;;;;19.90;86.50;;;;;;5031295;28;20024;-72
2023/05/30 13:36:53;;;;;;;;;;;19.90;85.90;;;;;;5009128;28;19947;-72
2023/05/30 13:39:21;;;;;;;;;;;20.00;86.30;;;;;;5031635;28;19964;-72
2023/05/30 13:41:48;;;;;;;;;;;20.00;85.70;;;;;;5032119;28;19925;-72
2023/05/30 13:44:14;;;;;;;;;;;20.10;85.50;;;;;;5009306;28;20288;-72
2023/05/30 13:46:41;;;;;;;;;;;20.10;84.90;;;;;;5032056;28;19933;-71
2023/05/30 13:49:08;;;;;;;;;;;20.20;84.10;;;;;;5030733;28;19925;-72
2023/05/30 13:51:36;;;;;;;;;;;20.20;84.50;;;;;;5031112;28;19947;-73
2023/05/30 13:54:05;;;;;;;;;;;20.30;84.10;;;;;;5007148;28;19972;-74
2023/05/30 13:56:32;;;;;;;;;;;20.40;85.00;;;;;;5013290;28;19961;-72
2023/05/30 13:59:00;;;;;;;;;;;20.40;83.90;;;;;;5022843;28;19926;-73
2023/05/30 14:01:29;;;;;;;;;;;20.30;85.10;;;;;;5028847;28;19933;-73
2023/05/30 14:03:56;;;;;;;;;;;20.40;85.70;;;;;;5030557;28;19929;-73
2023/05/30 14:06:23;;;;;;;;;;;20.40;85.10;;;;;;5028435;28;19929;-74
2023/05/30 14:08:52;;;;;;;;;;;20.50;83.30;;;;;;5029341;28;20381;-73
2023/05/30 14:11:19;;;;;;;;;;;20.50;84.80;;;;;;5031093;28;19929;-73
2023/05/30 14:13:46;;;;;;;;;;;20.60;83.60;;;;;;5029502;28;19934;-73
2023/05/30 14:16:13;;;;;;;;;;;20.70;83.60;;;;;;5006376;28;19988;-74
2023/05/30 14:18:44;;;;;;;;;;;20.70;82.90;;;;;;5027572;28;20047;-73
2023/05/30 14:21:11;;;;;;;;;;;20.70;83.80;;;;;;5011973;28;19944;-73
2023/05/30 14:23:39;;;;;;;;;;;20.70;82.20;;;;;;5026154;28;19929;-74
2023/05/30 14:26:08;;;;;;;;;;;20.80;83.10;;;;;;5027916;28;20032;-73